Detall de PIREP

Printer-friendly versionPDF version

[2013/04/20 15:02:00]
Flight IATA:CT1006
Pilot Number:012
Company ICAO:CAT
Aircraft Type:C750/F
PAX:4
Departing Airport: LTBA
Destination Airport: LGAV
Alternate Airport:LGTS
Online: VATSIM
Route:BIG UN604 KEPIR
Flight Level:F360
No Slew and time accel
No pause
Crash detect
Detect pilot in Cockpit between each 30 and 45 minutes
15:02 Zero fuel Weight: 22473 Lbs, Fuel Weight: 3500 Lbs
15:02 VATSIM:LTBA 201420Z 03009KT 010V090 9999 FEW040 14/05 Q1015 NOSIG
15:02 VATSIM:LGAV 201420Z 05016KT 9999 FEW025 17/05 Q1016 NOSIG
15:02 VOICE CATALONIAN / ALMOGÀVERS ROUTE
15:05 Parking Brakes off
15:11 Take-off
15:11 Take off Weight: 25879 Lbs
15:11 Wind: 047º @ 009 Knots Heading: 359º
15:11 POS N40º 58´ 49´´ E028º 48´ 23´´
15:11 Gear Up: 157 Knots
15:11 Flaps:3 at 157 Knots
15:12 Flaps:2 at 165 Knots
15:12 Flaps:0 at 171 Knots
15:20 TOC
15:20 Fuel Weight: 2991 Lb
15:26 Wind:351º@020 Knots Heading: 216º Ground Speed: 523 Knots Altitude 36030 ft
15:39 TOD
15:39 Fuel Weight: 2461 Lb
15:41 Wind:323º@058 Knots Heading: 242º Ground Speed: 457 Knots Altitude 32063 ft
15:56 Wind:342º@004 Knots Heading: 267º Ground Speed: 278 Knots Altitude 5259 ft
16:06 Flaps:2 at 177 Knots
16:07 Flaps:3 at 162 Knots
16:07 Flaps:4 at 150 Knots
16:07 Gear Down: 149 Knots
16:08 Flaps:5 at 136 Knots
16:11 Wind:047º@015 Knots Heading: 038º Ground Speed: 106 Knots Altitude 472 ft
16:11 TouchDown:Rate -254 ft/min Speed: 106 Knots
16:11 VATSIM:LGAV 201550Z 03014KT 9999 FEW025 16/02 Q1016 NOSIG
16:11 Land
16:11 Wind:047º@015 Knots
16:11 Heading: 038º
16:11 Flight Duration: 01:00
16:11 Landing Weight: 24585 Lbs
16:11 POS N37º 55´ 55´´ E023º 55´ 44´´
16:12 Parking brakes on
16:12 Block to Block Duration: 01:07
16:12 Final Fuel: 2107 Lbls
16:12 Spent Fuel: 1393 Lbls
16:12 Flight Length: 370 NM
16:12 TOD Land Length: 152 NM

Exportar CSV

Powered by Drupal - Modified by Danger4k